• Join FlightAware (Why Join?)
  • Login
  • US Flag 
03:51AM EDT


 

Airport Tracker/Info


-or-


 

Live Flight TrackerFlight Track Log ✈ N225BJ ✈ 16-Mar-2014 ✈ KAFW - KPTK

Flight Track Log - Related Links

Times and Time Zones

All times are in EDT time to prevent confusion due to time zone crossing. See the N225BJ flight status page for this flight to view local times or setup timezone preferences in your user account.

Time Position Orientation Groundspeed Altitude Reporting Facility
EDT Latitude Longitude Course Direction KTS MPH feet Rate Location/Type
07:11PM 33.0000 -97.3167 348° North 162 186 1,600  Level Dallas / Fort Worth TRACON
07:12PM 33.0667 -97.3333 348° North 216 249 5,500 2,520 Climbing Dallas / Fort Worth TRACON
07:14PM 33.1897 -97.2703 23° Northeast 275 316 11,200 2,520 Climbing Fort Worth Center
07:15PM 33.2372 -97.1953 53° Northeast 263 303 14,400 2,760 Climbing Fort Worth Center
07:16PM 33.2847 -97.1042 58° Northeast 297 342 17,000 2,100 Climbing Fort Worth Center
07:17PM 33.3444 -97.0206 49° Northeast 326 375 18,800 2,220 Climbing Fort Worth Center
07:18PM 33.4247 -96.9625 31° Northeast 332 382 21,700 1,980 Climbing Fort Worth Center
07:19PM 33.5097 -96.8900 35° Northeast 353 406 22,900 900 Climbing Fort Worth Center
07:21PM 33.6031 -96.8133 34° Northeast 399 459 23,600 1,500 Climbing Fort Worth Center
07:22PM 33.6844 -96.7436 35° Northeast 395 455 26,100 2,040 Climbing Fort Worth Center
07:23PM 33.7711 -96.6719 34° Northeast 381 438 27,900 1,740 Climbing Fort Worth Center
07:24PM 33.8778 -96.5864 34° Northeast 382 440 29,800 1,200 Climbing Fort Worth Center
07:25PM 33.9667 -96.5150 34° Northeast 382 440 30,500 840 Climbing Fort Worth Center
07:26PM 34.0558 -96.4419 34° Northeast 384 442 31,600 840 Climbing Fort Worth Center
07:27PM 34.1522 -96.3622 34° Northeast 389 448 32,300 780 Climbing Fort Worth Center
07:28PM 34.2444 -96.2861 34° Northeast 399 459 33,300 660 Climbing Fort Worth Center
07:29PM 34.3917 -96.1644 34° Northeast 399 459 34,100 480 Climbing Kansas City Center
07:30PM 34.4311 -96.1319 34° Northeast 409 471 34,300 900 Climbing Fort Worth Center
07:31PM 34.5419 -96.0403 34° Northeast 406 467 35,500 720 Climbing Fort Worth Center
07:32PM 34.6322 -95.9639 35° Northeast 402 463 35,900 360 Climbing Fort Worth Center
07:33PM 34.7217 -95.8892 34° Northeast 393 452 36,300 420 Climbing Fort Worth Center
07:34PM 34.8133 -95.8117 35° Northeast 401 461 36,800 300 Climbing Fort Worth Center
07:35PM 34.8911 -95.7156 45° Northeast 402 463 37,000 60 Climbing Fort Worth Center
07:36PM 34.9731 -95.6003 49° Northeast 415 478 37,000  Level Fort Worth Center
07:37PM 35.0486 -95.4875 51° Northeast 423 487 37,000  Level Fort Worth Center
07:38PM 35.1344 -95.3578 51° Northeast 433 498 37,000  Level Fort Worth Center
07:39PM 35.1717 -95.3006 51° Northeast 434 499 37,000  Level Kansas City Center
07:40PM 35.2506 -95.1817 51° Northeast 445 512 37,000  Level Kansas City Center
07:41PM 35.3300 -95.0608 51° Northeast 448 516 37,000  Level Kansas City Center
07:42PM 35.4094 -94.9414 51° Northeast 449 517 37,000  Level Kansas City Center
07:43PM 35.5036 -94.7992 51° Northeast 449 517 37,000  Level Kansas City Center
07:44PM 35.5819 -94.6783 51° Northeast 450 518 37,000  Level Kansas City Center
07:45PM 35.6908 -94.5117 51° Northeast 449 517 37,000  Level Memphis Center
07:46PM 35.7694 -94.3917 51° Northeast 450 518 37,000  Level Memphis Center
07:47PM 35.8469 -94.2711 52° Northeast 450 518 37,000  Level Memphis Center
07:48PM 35.9242 -94.1508 52° Northeast 450 518 37,000  Level Memphis Center
07:49PM 36.0061 -94.0236 51° Northeast 449 517 37,000  Level Memphis Center
07:50PM 36.0842 -93.9022 51° Northeast 449 517 37,000  Level Memphis Center
07:51PM 36.1619 -93.7808 52° Northeast 449 517 37,000  Level Memphis Center
07:52PM 36.2547 -93.6328 52° Northeast 449 517 37,000  Level Memphis Center
07:53PM 36.3336 -93.5097 51° Northeast 450 518 37,000  Level Memphis Center
07:54PM 36.3789 -93.4378 52° Northeast 451 519 37,000  Level Kansas City Center
07:55PM 36.4567 -93.3158 52° Northeast 451 519 37,000  Level Kansas City Center
07:56PM 36.5358 -93.1922 51° Northeast 451 519 37,000  Level Kansas City Center
07:57PM 36.6231 -93.0486 53° Northeast 453 521 37,000  Level Kansas City Center
07:58PM 36.7017 -92.9225 52° Northeast 455 524 37,000  Level Kansas City Center
07:59PM 36.7803 -92.7964 52° Northeast 456 525 37,000  Level Kansas City Center
08:00PM 36.8581 -92.6703 52° Northeast 456 525 37,000  Level Kansas City Center
08:01PM 36.9361 -92.5408 53° Northeast 461 531 37,000  Level Kansas City Center
08:02PM 37.0306 -92.3856 53° Northeast 461 531 37,000  Level Kansas City Center
08:03PM 37.1092 -92.2564 53° Northeast 462 532 37,000  Level Kansas City Center
08:04PM 37.1881 -92.1256 53° Northeast 465 535 37,000  Level Kansas City Center
08:06PM 37.2683 -91.9958 52° Northeast 466 536 37,000  Level Kansas City Center
08:07PM 37.3478 -91.8650 53° Northeast 469 540 37,000  Level Kansas City Center
08:08PM 37.4272 -91.7317 53° Northeast 472 543 37,000  Level Kansas City Center
08:09PM 37.5075 -91.5989 53° Northeast 474 545 37,000  Level Kansas City Center
08:10PM 37.6031 -91.4389 53° Northeast 475 547 37,000  Level Kansas City Center
08:11PM 37.6825 -91.3031 54° Northeast 476 548 37,000  Level Kansas City Center
08:12PM 37.7633 -91.1697 52° Northeast 477 549 37,000  Level Kansas City Center
08:13PM 37.8347 -91.0456 54° Northeast 481 554 37,000  Level Kansas City Center
08:14PM 37.9314 -90.8811 53° Northeast 483 556 37,000  Level Kansas City Center
08:15PM 38.0111 -90.7442 54° Northeast 484 557 37,000  Level Kansas City Center
08:16PM 38.0922 -90.6064 53° Northeast 485 558 37,000  Level Kansas City Center
08:17PM 38.1714 -90.4669 54° Northeast 486 559 37,000  Level Kansas City Center
08:18PM 38.2514 -90.3278 54° Northeast 488 562 37,000  Level Kansas City Center
08:19PM 38.3481 -90.1611 53° Northeast 491 565 37,000  Level Kansas City Center
08:20PM 38.4269 -90.0200 54° Northeast 492 566 37,000  Level Kansas City Center
08:21PM 38.5078 -89.8786 54° Northeast 494 568 37,000  Level Kansas City Center
08:22PM 38.5889 -89.7369 54° Northeast 497 572 37,000  Level Kansas City Center
08:23PM 38.6664 -89.5967 55° Northeast 492 566 37,000  Level Kansas City Center
08:24PM 38.7458 -89.4550 54° Northeast 491 565 37,000  Level Kansas City Center
08:25PM 38.8417 -89.2822 55° Northeast 494 568 37,000  Level Kansas City Center
08:26PM 38.9214 -89.1397 54° Northeast 494 568 37,000  Level Kansas City Center
08:27PM 39.0011 -88.9956 55° Northeast 496 571 37,000  Level Kansas City Center
08:28PM 39.0825 -88.8506 54° Northeast 496 571 37,000  Level Kansas City Center
08:29PM 39.1617 -88.7056 55° Northeast 497 572 37,000  Level Kansas City Center
08:30PM 39.2436 -88.5553 55° Northeast 496 571 37,000  Level Kansas City Center
08:31PM 39.3219 -88.4081 55° Northeast 496 571 37,000  Level Kansas City Center
08:32PM 39.4167 -88.2317 55° Northeast 496 571 37,000  Level Kansas City Center
08:33PM 39.4953 -88.0844 55° Northeast 496 571 37,000  Level Kansas City Center
08:34PM 39.5617 -87.9597 55° Northeast 496 571 37,000  Level Indianapolis Center
08:35PM 39.6403 -87.8139 55° Northeast 496 571 37,000  Level Indianapolis Center
08:36PM 39.7181 -87.6667 55° Northeast 495 570 37,000  Level Indianapolis Center
08:37PM 39.8117 -87.4908 55° Northeast 495 570 37,000 -300 Level Indianapolis Center
08:38PM 39.8892 -87.3411 56° Northeast 495 570 36,500 -540 Descending Indianapolis Center
08:39PM 39.9692 -87.1892 55° Northeast 503 579 36,000 -360 Descending Indianapolis Center
08:40PM 40.0478 -87.0378 56° Northeast 503 579 35,800 -600 Descending Indianapolis Center
08:41PM 40.1269 -86.8864 56° Northeast 503 579 34,800 -1,020 Descending Indianapolis Center
08:43PM 40.2047 -86.7331 56° Northeast 503 579 33,800 -900 Descending Indianapolis Center
08:44PM 40.2811 -86.5828 56° Northeast 502 578 33,000 -420 Descending Indianapolis Center
08:45PM 40.3558 -86.4367 56° Northeast 493 567 33,000  Level Indianapolis Center
08:46PM 40.4306 -86.2903 56° Northeast 485 558 33,000  Level Indianapolis Center
08:46PM 40.4775 -86.2022 55° Northeast 487 560 33,000 -480 Level Chicago Center
08:47PM 40.5508 -86.0539 57° Northeast 485 558 32,300 -1,080 Descending Chicago Center
08:48PM 40.6242 -85.9089 56° Northeast 479 551 30,800 -2,100 Descending Chicago Center
08:49PM 40.7053 -85.7464 57° Northeast 483 556 28,000 -2,280 Descending Chicago Center
08:50PM 40.7794 -85.5964 57° Northeast 491 565 26,100 -1,740 Descending Chicago Center
08:51PM 40.8506 -85.4514 57° Northeast 477 549 24,400 -1,740 Descending Chicago Center
08:52PM 40.9181 -85.3133 57° Northeast 455 524 22,500 -1,680 Descending Chicago Center
08:53PM 41.0083 -85.1686 50° Northeast 434 499 21,000 -780 Descending Chicago Center
08:54PM 41.1183 -85.1333 14° North 411 473 21,000  Level Chicago Center
08:55PM 41.2267 -85.0928 16° North 407 468 21,000  Level Chicago Center
08:56PM 41.3361 -85.0494 17° North 412 474 21,000 -60 Level Chicago Center
08:57PM 41.4656 -84.9986 16° North 409 471 20,900 -540 Descending Chicago Center
08:59PM 41.5719 -84.9575 16° North 403 464 20,000 -900 Descending Chicago Center
09:00PM 41.6622 -84.8822 32° Northeast 405 466 19,100 -480 Descending Chicago Center
09:01PM 41.7172 -84.7483 61° Northeast 415 478 19,000 -1,200 Descending Chicago Center
09:02PM 41.7733 -84.6153 60° Northeast 414 476 16,700 -2,940 Descending Chicago Center
09:03PM 41.8386 -84.4625 60° Northeast 399 459 13,000 -3,300 Descending Chicago Center
09:03PM 41.8753 -84.3756 60° Northeast 340 391 10,800 -2,220 Descending Cleveland Center
09:04PM 41.8919 -84.3319 63° Northeast 340 391 10,100 -900 Descending Cleveland Center
09:04PM 41.9178 -84.2728 60° Northeast 342 394 10,000 -120 Descending Cleveland Center
09:05PM 41.9442 -84.2061 62° Northeast 340 391 10,000  Level Cleveland Center
09:05PM 41.9675 -84.1567 58° Northeast 334 384 10,000  Level Cleveland Center
09:06PM 42.0022 -84.1142 42° Northeast 330 380 10,000  Level Cleveland Center
09:06PM 42.0325 -84.0850 36° Northeast 325 374 10,000  Level Cleveland Center
09:07PM 42.0761 -84.0408 37° Northeast 329 379 10,000  Level Cleveland Center
09:07PM 42.1036 -84.0114 38° Northeast 326 375 10,000  Level Cleveland Center
09:08PM 42.1450 -83.9633 41° Northeast 326 375 10,000  Level Cleveland Center
09:09PM 42.1894 -83.9117 41° Northeast 327 376 10,000  Level Cleveland Center
09:09PM 42.2150 -83.8831 40° Northeast 327 376 10,000  Level Cleveland Center
09:10PM 42.2608 -83.8347 38° Northeast 328 377 10,000  Level Cleveland Center
09:10PM 42.2881 -83.8094 34° Northeast 327 376 10,000 -600 Level Cleveland Center
09:11PM 42.3311 -83.7689 35° Northeast 288 331 9,400 -1,620 Descending Cleveland Center
09:11PM 42.3681 -83.7358 33° Northeast 287 330 8,400 -1,920 Descending Cleveland Center
09:12PM 42.3967 -83.7108 33° Northeast 271 312 7,500 -1,680 Descending Cleveland Center
09:12PM 42.4228 -83.6706 49° Northeast 268 308 6,700 -1,440 Descending Cleveland Center
09:13PM 42.4375 -83.6461 51° Northeast 249 287 6,200 -1,260 Descending Cleveland Center
09:13PM 42.4700 -83.6128 37° Northeast 240 276 5,400 -1,320 Descending Cleveland Center
09:14PM 42.4892 -83.6028 21° North 218 251 4,900 -1,200 Descending Cleveland Center
09:14PM 42.5283 -83.5806 23° Northeast 230 265 4,200 -1,140 Descending Cleveland Center
09:15PM 42.5444 -83.5681 30° Northeast 214 246 3,800 -720 Descending Cleveland Center
09:15PM 42.5800 -83.5481 22° Northeast 218 251 3,500 -480 Descending Cleveland Center
09:16PM 42.5906 -83.5408 27° Northeast 199 229 3,400 -540 Descending Cleveland Center
09:16PM 42.6283 -83.5211 21° North 202 232 3,000 -600 Descending Cleveland Center
09:17PM 42.6344 -83.5161 31° Northeast 152 175 2,800 -780 Descending Cleveland Center
09:17PM 42.6544 -83.4914 42° Northeast 155 178 2,200 -840 Descending Cleveland Center
09:18PM 42.6561 -83.4822 76° East 113 130 2,000 -900 Descending Cleveland Center
09:18PM 42.6647 -83.4503 70° East 130 150 1,300 -840 Descending Cleveland Center